Time;durP1;ratioP1;P1;durP2;ratioP2;P2;SDS_P1;SDS_P2;PMS_P1;PMS_P2;Temp;Humidity;BMP_temperature;BMP_pressure;BME280_temperature;BME280_humidity;BME280_pressure;Samples;Min_cycle;Max_cycle;Signal;HPM_P1;HPM_P2
2021/06/30 00:00:52;;;;;;;0.20;0.20;;;;;;;13.97;82.35;98738.75;5105934;27;20124;-78
2021/06/30 00:03:31;;;;;;;0.10;0.10;;;;;;;13.97;82.94;98732.47;5090841;27;20401;-79
2021/06/30 00:06:10;;;;;;;0.10;0.10;;;;;;;14.04;82.24;98735.22;5099671;27;20156;-79
2021/06/30 00:08:49;;;;;;;0.10;0.10;;;;;;;14.06;82.20;98736.72;5108660;27;20401;-79
2021/06/30 00:11:27;;;;;;;0.20;0.20;;;;;;;14.03;82.59;98731.66;5144232;27;20134;-77
2021/06/30 00:14:07;;;;;;;0.17;0.17;;;;;;;14.01;82.86;98732.94;5132907;27;20144;-79
2021/06/30 00:16:47;;;;;;;0.20;0.20;;;;;;;14.03;82.98;98728.94;5105735;27;20448;-78
2021/06/30 00:19:28;;;;;;;0.10;0.10;;;;;;;13.98;82.90;98731.44;5092438;27;20395;-78
2021/06/30 00:22:06;;;;;;;0.20;0.20;;;;;;;13.94;83.25;98735.56;5103973;27;20384;-79
2021/06/30 00:24:44;;;;;;;0.20;0.20;;;;;;;13.95;83.38;98740.81;5077729;27;20881;-77
2021/06/30 00:27:23;;;;;;;0.10;0.10;;;;;;;14.01;83.28;98735.66;5132831;27;20120;-81
2021/06/30 00:30:03;;;;;;;0.20;0.20;;;;;;;14.03;83.23;98737.09;5142260;27;20361;-79
2021/06/30 00:32:40;;;;;;;0.20;0.20;;;;;;;14.04;83.39;98733.38;5117827;27;20398;-78
2021/06/30 00:35:19;;;;;;;0.10;0.10;;;;;;;13.97;83.99;98735.19;5102636;27;20392;-77
2021/06/30 00:37:57;;;;;;;0.20;0.20;;;;;;;13.96;83.84;98737.03;5132635;27;20173;-80
2021/06/30 00:40:39;;;;;;;0.10;0.10;;;;;;;13.93;84.32;98748.31;5102913;27;20434;-79
2021/06/30 00:43:18;;;;;;;0.10;0.10;;;;;;;13.87;84.76;98749.09;5064760;28;20368;-78
2021/06/30 00:45:56;;;;;;;0.10;0.10;;;;;;;13.82;84.93;98742.56;5096680;27;20400;-78
2021/06/30 00:48:35;;;;;;;0.13;0.13;;;;;;;13.85;84.95;98750.31;5041527;28;20428;-79
2021/06/30 00:51:13;;;;;;;0.20;0.20;;;;;;;13.89;84.89;98738.84;5103490;27;20636;-78
2021/06/30 00:53:52;;;;;;;0.10;0.10;;;;;;;13.91;84.81;98738.69;5098115;27;20434;-79
2021/06/30 00:56:29;;;;;;;0.10;0.10;;;;;;;13.86;85.11;98749.31;5031195;28;20392;-77
2021/06/30 00:59:11;;;;;;;0.10;0.10;;;;;;;13.84;85.28;98748.66;5105865;27;20427;-79
2021/06/30 01:01:48;;;;;;;0.20;0.20;;;;;;;13.80;85.43;98752.78;5113299;27;20413;-77
2021/06/30 01:04:27;;;;;;;0.10;0.10;;;;;;;13.74;85.84;98744.38;5090648;27;20389;-77
2021/06/30 01:07:17;;;;;;;0.10;0.10;;;;;;;13.72;85.96;98742.91;5077364;27;20431;-79
2021/06/30 01:09:55;;;;;;;0.10;0.10;;;;;;;13.69;86.34;98746.81;5084412;27;20391;-79
2021/06/30 01:12:34;;;;;;;0.20;0.20;;;;;;;13.72;86.17;98740.19;5098180;27;20179;-79
2021/06/30 01:15:12;;;;;;;0.20;0.20;;;;;;;13.74;86.41;98748.97;5122494;27;20154;-78
2021/06/30 01:17:53;;;;;;;0.20;0.20;;;;;;;13.78;86.16;98749.41;5113597;27;20638;-78
2021/06/30 01:20:31;;;;;;;0.20;0.20;;;;;;;13.81;86.48;98744.44;5071105;28;20392;-77
2021/06/30 01:23:10;;;;;;;0.20;0.20;;;;;;;13.88;85.79;98741.78;5115481;27;20396;-78
2021/06/30 01:25:48;;;;;;;0.10;0.10;;;;;;;13.93;85.69;98736.59;5119610;27;20766;-79
2021/06/30 01:28:26;;;;;;;0.10;0.10;;;;;;;13.91;85.88;98738.69;5062705;28;20395;-78
2021/06/30 01:31:05;;;;;;;0.10;0.10;;;;;;;13.97;85.76;98748.78;5081724;27;20386;-78
2021/06/30 01:33:44;;;;;;;0.20;0.20;;;;;;;13.93;85.81;98736.59;5109390;27;20427;-78
2021/06/30 01:36:22;;;;;;;0.20;0.20;;;;;;;13.92;85.79;98740.34;5146524;27;20584;-77
2021/06/30 01:39:01;;;;;;;0.10;0.10;;;;;;;13.96;85.69;98742.47;5126411;27;20362;-76
2021/06/30 01:41:40;;;;;;;0.20;0.20;;;;;;;14.00;85.49;98732.06;5105523;27;20389;-79
2021/06/30 01:44:18;;;;;;;0.10;0.10;;;;;;;14.02;85.46;98732.72;5115106;27;20405;-77
2021/06/30 01:46:56;;;;;;;0.20;0.20;;;;;;;14.06;85.38;98733.16;5098941;27;20389;-77
2021/06/30 01:49:40;;;;;;;0.15;0.15;;;;;;;14.03;85.50;98734.38;5112272;27;20394;-78
2021/06/30 01:52:17;;;;;;;0.17;0.17;;;;;;;14.02;85.35;98738.16;5064522;28;20407;-79
2021/06/30 01:54:56;;;;;;;0.20;0.20;;;;;;;14.04;85.32;98738.81;5089057;27;20398;-79
2021/06/30 01:57:44;;;;;;;0.10;0.10;;;;;;;14.02;85.36;98735.44;5111750;27;20409;-76
2021/06/30 02:00:33;;;;;;;0.20;0.20;;;;;;;13.97;85.71;98738.75;5120952;27;20398;-78
2021/06/30 02:03:11;;;;;;;0.10;0.10;;;;;;;14.05;85.41;98740.47;5113554;27;20416;-78
2021/06/30 02:05:50;;;;;;;0.20;0.20;;;;;;;14.00;85.56;98737.50;5056470;28;20797;-76
2021/06/30 02:08:26;;;;;;;0.20;0.20;;;;;;;14.05;85.58;98732.34;5065483;28;20926;-76
2021/06/30 02:11:04;;;;;;;0.20;0.20;;;;;;;14.08;85.37;98739.25;5104104;27;20404;-77
2021/06/30 02:13:43;;;;;;;0.20;0.20;;;;;;;14.09;85.52;98736.34;5096276;27;20405;-76
2021/06/30 02:16:21;;;;;;;0.20;0.20;;;;;;;14.08;85.77;98733.81;5092723;27;20409;-76
2021/06/30 02:19:04;;;;;;;0.20;0.20;;;;;;;14.07;85.28;98738.38;5106810;27;20413;-79
2021/06/30 02:21:42;;;;;;;0.20;0.20;;;;;;;14.13;85.20;98734.91;5135612;27;20419;-77
2021/06/30 02:24:20;;;;;;;0.10;0.10;;;;;;;14.22;85.10;98739.16;5113709;27;20418;-78
2021/06/30 02:27:01;;;;;;;0.20;0.20;;;;;;;14.37;84.43;98738.19;5104465;27;20403;-78
2021/06/30 02:29:39;;;;;;;0.20;0.20;;;;;;;14.42;84.15;98739.31;5095773;27;20425;-76
2021/06/30 02:32:18;;;;;;;0.20;0.20;;;;;;;14.65;83.43;98741.78;5101551;27;20133;-77
2021/06/30 02:34:56;;;;;;;0.10;0.10;;;;;;;14.68;82.90;98740.56;5104651;28;20198;-77
2021/06/30 02:37:34;;;;;;;0.17;0.17;;;;;;;14.70;82.92;98750.19;5099965;28;20422;-78
2021/06/30 02:40:15;;;;;;;0.20;0.20;;;;;;;14.90;82.29;98749.47;5101940;28;20405;-79
2021/06/30 02:42:54;;;;;;;0.20;0.20;;;;;;;15.22;80.90;98750.66;5086679;28;20393;-79
2021/06/30 02:45:32;;;;;;;0.10;0.10;;;;;;;15.30;80.27;98733.31;5099200;27;20203;-80
2021/06/30 02:48:10;;;;;;;0.20;0.20;;;;;;;15.38;80.06;98742.13;5064661;28;20234;-78
2021/06/30 02:50:48;;;;;;;0.20;0.20;;;;;;;15.57;79.15;98735.06;5103874;27;20146;-77
2021/06/30 02:53:26;;;;;;;0.10;0.10;;;;;;;15.62;79.02;98732.56;5099460;27;20166;-77
2021/06/30 02:56:05;;;;;;;0.17;0.17;;;;;;;15.76;78.22;98743.50;5103146;27;20120;-78
2021/06/30 02:58:43;;;;;;;0.20;0.20;;;;;;;15.90;78.03;98746.06;5085090;27;20145;-81
2021/06/30 03:01:21;;;;;;;0.20;0.20;;;;;;;15.87;78.07;98757.38;5102141;27;20132;-81
2021/06/30 03:03:59;;;;;;;0.13;0.13;;;;;;;15.81;78.02;98758.22;5101101;27;20359;-79
2021/06/30 03:06:37;;;;;;;0.20;0.20;;;;;;;15.67;78.06;98762.78;5103505;27;20121;-79
2021/06/30 03:09:15;;;;;;;0.20;0.20;;;;;;;15.76;78.24;98749.81;5062628;28;20150;-78
2021/06/30 03:11:54;;;;;;;0.20;0.20;;;;;;;15.72;77.77;98743.06;5106697;27;20413;-79
2021/06/30 03:14:33;;;;;;;0.20;0.20;;;;;;;15.86;77.67;98750.22;5104446;27;20764;-79
2021/06/30 03:17:11;;;;;;;0.20;0.20;;;;;;;15.88;77.34;98750.88;5111836;27;20404;-78
2021/06/30 03:19:50;;;;;;;0.20;0.20;;;;;;;16.08;76.72;98742.69;5087362;28;20423;-78
2021/06/30 03:22:28;;;;;;;0.20;0.20;;;;;;;16.04;76.41;98738.72;5104447;27;20223;-78
2021/06/30 03:25:08;;;;;;;0.20;0.20;;;;;;;16.31;75.15;98741.47;5084473;28;20406;-82
2021/06/30 03:27:46;;;;;;;0.20;0.20;;;;;;;16.36;75.16;98745.22;5105709;27;20399;-78
2021/06/30 03:30:24;;;;;;;0.20;0.20;;;;;;;16.35;74.96;98738.09;5105540;27;20929;-79
2021/06/30 03:33:02;;;;;;;0.20;0.20;;;;;;;16.38;74.46;98747.72;5105385;27;20722;-78
2021/06/30 03:35:42;;;;;;;0.20;0.20;;;;;;;16.45;74.46;98748.56;5077662;27;20417;-77
2021/06/30 03:38:20;;;;;;;0.20;0.20;;;;;;;16.61;73.88;98742.69;5099147;27;20384;-78
2021/06/30 03:41:01;;;;;;;0.20;0.20;;;;;;;16.63;73.39;98746.03;5105885;27;20404;-80
2021/06/30 03:43:43;;;;;;;0.20;0.20;;;;;;;16.79;72.67;98749.41;5122518;27;20895;-79
2021/06/30 03:46:21;;;;;;;0.20;0.20;;;;;;;17.27;72.16;98735.38;5103491;27;20863;-79
2021/06/30 03:49:00;;;;;;;0.20;0.20;;;;;;;17.34;70.67;98731.56;5088244;28;20386;-80
2021/06/30 03:51:38;;;;;;;0.20;0.20;;;;;;;17.24;71.39;98730.34;5098566;27;20154;-79
2021/06/30 03:54:17;;;;;;;0.17;0.17;;;;;;;17.69;70.17;98733.06;5105790;27;20351;-78
2021/06/30 03:56:57;;;;;;;0.20;0.20;;;;;;;17.48;70.25;98717.84;5062109;28;20395;-77
2021/06/30 03:59:36;;;;;;;0.30;0.30;;;;;;;18.04;68.18;98726.09;5146237;27;20131;-82
2021/06/30 04:02:15;;;;;;;0.30;0.30;;;;;;;18.15;67.39;98729.19;5120434;27;20358;-80
2021/06/30 04:04:55;;;;;;;0.22;0.22;;;;;;;18.45;66.47;98724.69;5142679;27;20374;-76
2021/06/30 04:07:36;;;;;;;0.20;0.20;;;;;;;18.92;65.65;98722.34;5086790;27;20412;-79
2021/06/30 04:10:17;;;;;;;0.30;0.30;;;;;;;18.60;65.69;98729.81;5086420;28;20412;-78
2021/06/30 04:12:55;;;;;;;0.30;0.30;;;;;;;18.37;66.55;98724.16;5105006;27;20182;-79
2021/06/30 04:15:37;;;;;;;0.30;0.30;;;;;;;18.49;66.61;98723.19;5164964;27;20470;-78
2021/06/30 04:18:14;;;;;;;0.30;0.30;;;;;;;18.50;66.59;98724.88;5058365;27;20140;-82
2021/06/30 04:20:52;;;;;;;0.40;0.40;;;;;;;18.59;66.19;98724.59;5108527;27;20384;-79
2021/06/30 04:23:34;;;;;;;0.30;0.30;;;;;;;18.85;65.09;98738.03;5099480;27;20416;-84
2021/06/30 04:26:12;;;;;;;0.30;0.30;;;;;;;19.23;64.07;98742.44;5087565;27;20375;-80
2021/06/30 04:28:50;;;;;;;0.43;0.43;;;;;;;19.52;63.05;98736.16;5104583;27;20380;-78
2021/06/30 04:31:30;;;;;;;0.40;0.40;;;;;;;19.72;62.23;98737.81;5102564;27;20262;-79
2021/06/30 04:34:08;;;;;;;0.10;0.10;;;;;;;19.20;64.15;98735.53;5083291;27;20758;-78
2021/06/30 04:36:46;;;;;;;0.40;0.40;;;;;;;19.72;62.14;98732.34;5147432;27;21001;-78
2021/06/30 04:39:41;;;;;;;0.50;0.50;;;;;;;20.03;61.24;98744.94;5068930;28;20429;-80
2021/06/30 04:42:20;;;;;;;0.10;0.10;;;;;;;19.61;61.70;98735.84;5081767;27;20402;-80
2021/06/30 04:45:04;;;;;;;0.20;0.20;;;;;;;19.46;63.03;98750.78;5139568;27;20143;-79
2021/06/30 04:47:43;;;;;;;0.17;0.17;;;;;;;19.25;63.33;98748.53;5105246;27;20373;-79
2021/06/30 04:50:21;;;;;;;0.10;0.10;;;;;;;19.20;62.96;98753.88;5093064;27;20416;-79
2021/06/30 04:53:00;;;;;;;0.20;0.20;;;;;;;19.13;62.60;98744.91;5109373;27;20354;-78
2021/06/30 04:55:41;;;;;;;0.20;0.20;;;;;;;18.88;64.14;98748.53;5062678;28;20427;-79
2021/06/30 04:58:25;;;;;;;0.20;0.20;;;;;;;18.61;64.64;98741.59;5077612;27;20782;-82
2021/06/30 05:01:08;;;;;;;0.20;0.20;;;;;;;18.61;65.09;98734.25;5078758;28;20412;-80
2021/06/30 05:03:47;;;;;;;0.20;0.20;;;;;;;18.36;65.60;98739.75;5105950;27;20407;-82
2021/06/30 05:06:25;;;;;;;0.57;0.57;;;;;;;18.91;64.77;98734.38;5095997;27;20425;-83
2021/06/30 05:09:08;;;;;;;0.20;0.20;;;;;;;18.83;64.25;98723.75;5058415;28;20923;-79
2021/06/30 05:11:50;;;;;;;0.30;0.30;;;;;;;19.04;64.13;98719.69;5088946;27;20422;-77
2021/06/30 05:14:29;;;;;;;0.20;0.20;;;;;;;19.39;62.68;98722.63;5097702;27;20417;-80
2021/06/30 05:17:08;;;;;;;0.20;0.20;;;;;;;19.74;62.20;98713.72;5103718;27;20424;-79
2021/06/30 05:19:47;;;;;;;0.60;0.28;;;;;;;20.20;60.63;98701.19;5063750;28;20398;-83
2021/06/30 05:22:31;;;;;;;0.70;0.70;;;;;;;21.28;57.89;98708.06;5109622;27;20390;-81
2021/06/30 05:25:14;;;;;;;0.65;0.65;;;;;;;22.33;55.02;98708.63;5095813;27;20670;-83
2021/06/30 05:27:56;;;;;;;0.70;0.70;;;;;;;22.18;54.78;98706.47;5108247;27;20469;-81
2021/06/30 05:30:39;;;;;;;0.30;0.30;;;;;;;21.22;56.93;98698.03;5112095;27;20446;-81
2021/06/30 05:33:29;;;;;;;0.40;0.40;;;;;;;22.08;55.45;98695.25;5115382;27;20382;-82
2021/06/30 05:36:16;;;;;;;0.52;0.52;;;;;;;21.58;56.45;98690.50;5068737;28;20436;-79
2021/06/30 05:39:12;;;;;;;0.40;0.40;;;;;;;21.69;56.33;98697.88;5003628;28;20421;-79
2021/06/30 05:41:59;;;;;;;0.47;0.47;;;;;;;21.28;57.79;98696.19;5057800;28;20753;-81
2021/06/30 05:44:39;;;;;;;0.20;0.20;;;;;;;20.81;59.93;98691.66;5047109;28;20412;-81
2021/06/30 05:47:23;;;;;;;0.20;0.20;;;;;;;21.33;58.42;98699.94;5150151;27;20407;-82
2021/06/30 05:50:05;;;;;;;0.30;0.30;;;;;;;22.04;56.73;98694.06;5120652;27;20425;-81
2021/06/30 05:52:46;;;;;;;0.30;0.30;;;;;;;;;;5141085;27;20127;-85
2021/06/30 05:55:35;;;;;;;1.00;1.00;;;;;;;21.71;57.07;98683.84;5064529;28;20440;-83
2021/06/30 05:58:19;;;;;;;0.20;0.20;;;;;;;21.98;56.70;98684.09;5098632;27;20423;-82
2021/06/30 06:01:06;;;;;;;0.75;0.75;;;;;;;22.54;54.65;98696.03;5062428;28;20465;-81
2021/06/30 06:03:48;;;;;;;0.77;0.77;;;;;;;22.55;54.17;98717.78;5085905;27;20419;-81
2021/06/30 06:06:29;;;;;;;0.47;0.47;;;;;;;23.01;53.33;98715.75;5085759;27;20776;-84
2021/06/30 06:09:14;;;;;;;0.20;0.20;;;;;;;22.41;54.52;98710.13;5118429;27;20399;-84
2021/06/30 06:12:02;;;;;;;0.20;0.20;;;;;;;22.51;54.92;98708.38;5122109;27;20442;-81
2021/06/30 06:14:54;;;;;;;0.20;0.20;;;;;;;21.32;57.91;98709.25;5105458;27;20419;-81
2021/06/30 06:17:37;;;;;;;0.17;0.17;;;;;;;21.06;58.75;98698.78;5103220;27;20438;-81
2021/06/30 06:20:16;;;;;;;0.55;0.55;;;;;;;20.98;59.27;98707.41;5101005;27;20619;-82
2021/06/30 06:23:03;;;;;;;0.20;0.20;;;;;;;21.23;58.41;98705.19;5056498;28;20409;-83
2021/06/30 06:25:49;;;;;;;0.98;0.98;;;;;;;22.65;55.05;98716.28;5047039;28;20424;-83
2021/06/30 06:28:34;;;;;;;0.32;0.32;;;;;;;22.82;54.50;98706.91;5098529;27;20926;-82
2021/06/30 06:31:27;;;;;;;0.85;0.85;;;;;;;23.94;51.93;98707.44;5169541;27;20396;-83
2021/06/30 06:34:20;;;;;;;0.10;0.10;;;;;;;25.15;49.20;98716.94;5118501;27;20419;-82
2021/06/30 06:37:05;;;;;;;0.20;0.20;;;;;;;23.86;52.25;98709.84;5069891;28;20431;-83
2021/06/30 06:39:50;;;;;;;1.40;1.40;;;;;;;24.67;48.36;98713.31;5131627;27;20409;-83
2021/06/30 06:42:46;;;;;;;0.57;0.57;;;;;;;23.52;50.10;98726.59;5079732;28;20437;-85
2021/06/30 06:45:40;;;;;;;1.10;1.10;;;;;;;23.55;50.26;98732.41;5094503;27;20442;-81
2021/06/30 06:48:27;;;;;;;1.13;1.13;;;;;;;23.69;49.50;98721.81;5118741;27;20422;-80
2021/06/30 06:51:12;;;;;;;1.08;1.08;;;;;;;23.65;49.43;98712.38;5125365;27;20409;-85
2021/06/30 06:54:24;;;;;;;1.10;1.10;;;;;;;24.20;48.66;98705.75;5100712;27;20421;-84
2021/06/30 06:57:08;;;;;;;0.40;0.40;;;;;;;24.38;48.75;98717.50;5117424;27;20439;-83
2021/06/30 07:10:28;;;;;;;1.10;1.10;;;;;;;26.77;42.50;98708.41;5051069;22;20426;-85
2021/06/30 07:13:14;;;;;;;1.20;1.20;;;;;;;27.71;39.61;98712.19;5131069;27;20421;-85
2021/06/30 07:16:15;;;;;;;1.30;1.30;;;;;;;29.17;37.42;98704.91;5086709;27;20865;-84
2021/06/30 07:19:12;;;;;;;0.20;0.20;;;;;;;27.52;39.89;98692.59;4977217;28;20047;-84
2021/06/30 07:21:58;;;;;;;0.20;0.20;;;;;;;25.70;43.27;98696.09;5144216;27;20440;-84
2021/06/30 07:35:14;;;;;;;0.40;0.40;;;;;;;24.59;45.40;98711.06;5975872;22;5330934;-83
2021/06/30 07:38:04;;;;;;;0.20;0.20;;;;;;;24.18;45.67;98704.38;6166665;23;20021;-83
2021/06/30 07:41:06;;;;;;;0.30;0.30;;;;;;;24.27;45.54;98689.78;5211023;22;20164;-83
2021/06/30 07:43:53;;;;;;;0.20;0.20;;;;;;;24.02;46.32;98693.19;6304934;22;20757;-83
2021/06/30 07:46:47;;;;;;;0.30;0.30;;;;;;;24.46;46.09;98697.69;5116057;27;20123;-85
2021/06/30 07:49:56;;;;;;;0.30;0.30;;;;;;;24.26;45.99;98693.66;5087154;27;20425;-85
2021/06/30 08:03:27;;;;;;;0.20;0.20;;;;;;;23.15;48.84;98691.38;5806585;22;9978920;-84
2021/06/30 08:17:25;;;;;;;0.20;0.20;;;;;;;24.88;45.51;98694.94;5100866;22;20440;31
2021/06/30 08:30:37;;;;;;;0.20;0.20;;;;;;;23.80;48.88;98690.50;6032671;22;3486784;-83
2021/06/30 08:33:36;;;;;;;0.20;0.20;;;;;;;23.87;48.21;98706.00;5117687;27;20462;-82
2021/06/30 08:36:27;;;;;;;0.20;0.20;;;;;;;23.40;49.65;98714.84;5146190;22;20432;31
2021/06/30 08:39:28;;;;;;;0.20;0.20;;;;;;;22.90;51.40;98707.56;5128983;27;20406;-83
2021/06/30 08:42:28;;;;;;;0.10;0.10;;;;;;;22.56;51.89;98704.84;5335672;23;20055;-85
2021/06/30 08:55:41;;;;;;;0.10;0.10;;;;;;;21.74;54.10;98722.72;5885916;22;8316316;-83
2021/06/30 08:59:04;;;;;;;0.10;0.10;;;;;;;21.26;55.80;98725.88;5533587;22;20436;-85
2021/06/30 09:02:06;;;;;;;0.10;0.10;;;;;;;21.15;56.59;98724.81;5597407;22;20051;31
2021/06/30 09:05:13;;;;;;;0.10;0.10;;;;;;;21.09;57.24;98720.28;5015355;28;20070;-84
2021/06/30 09:08:04;;;;;;;0.10;0.10;;;;;;;21.31;56.60;98718.53;5170912;27;20042;-82
2021/06/30 09:10:53;;;;;;;0.10;0.10;;;;;;;21.06;57.92;98724.38;5168746;27;20416;-82
2021/06/30 09:13:45;;;;;;;0.10;0.10;;;;;;;21.10;57.81;98717.31;5097688;27;20445;-82
2021/06/30 09:16:25;;;;;;;0.63;0.10;;;;;;;21.10;58.37;98721.97;5172410;27;20400;-84
2021/06/30 09:19:47;;;;;;;0.10;0.10;;;;;;;21.06;58.83;98724.38;5370155;22;20212;31
2021/06/30 09:33:03;;;;;;;0.10;0.10;;;;;;;19.87;63.02;98746.44;5119648;27;20463;-84
2021/06/30 09:35:42;;;;;;;0.10;0.10;;;;;;;19.85;64.32;98753.22;5129052;22;20460;-82
2021/06/30 09:49:11;;;;;;;0.20;0.20;;;;;;;20.13;63.95;98745.22;6186538;22;2049150;-83
2021/06/30 09:52:22;;;;;;;0.15;0.15;;;;;;;20.22;63.00;98745.72;5117640;27;20406;-83
2021/06/30 09:55:22;;;;;;;0.10;0.10;;;;;;;20.19;63.26;98748.94;5087835;27;20433;-83
2021/06/30 09:58:06;;;;;;;0.10;0.10;;;;;;;20.38;63.14;98747.75;5128596;27;20413;-84
2021/06/30 10:01:16;;;;;;;0.20;0.10;;;;;;;20.12;64.01;98748.19;5080047;28;20421;-83
2021/06/30 11:51:38;;;;;;;0.20;0.20;;;;;;;21.17;58.72;98763.88;6184062;22;20030;31
2021/06/30 21:31:50;;;;;;;0.10;0.10;;;;;;;17.19;88.40;98727.44;5091154;27;20867;-85
2021/06/30 21:34:40;;;;;;;0.10;0.10;;;;;;;17.21;88.46;98730.78;5155476;27;20370;-84
2021/06/30 21:37:41;;;;;;;0.10;0.10;;;;;;;17.19;88.58;98722.81;5119934;27;20405;-83
2021/06/30 21:40:33;;;;;;;0.10;0.10;;;;;;;17.23;88.35;98728.69;5124184;27;20373;-83
2021/06/30 21:43:19;;;;;;;0.10;0.10;;;;;;;17.27;88.30;98727.19;5116062;27;20852;-84
2021/06/30 21:46:32;;;;;;;0.10;0.10;;;;;;;17.23;88.33;98723.22;5175723;27;20371;-83
2021/06/30 21:49:14;;;;;;;0.10;0.10;;;;;;;17.25;88.13;98729.28;5096224;28;20445;-84
2021/06/30 21:51:59;;;;;;;0.10;0.10;;;;;;;17.27;88.09;98724.47;5124657;27;20433;-82
2021/06/30 21:54:44;;;;;;;0.10;0.10;;;;;;;17.30;88.07;98719.41;5120570;27;20438;-82
2021/06/30 21:57:28;;;;;;;0.10;0.10;;;;;;;17.31;88.08;98720.22;5107749;27;20447;-83
2021/06/30 22:00:27;;;;;;;0.10;0.10;;;;;;;17.23;88.05;98718.59;5135009;27;20382;-83
2021/06/30 22:03:16;;;;;;;0.10;0.10;;;;;;;17.32;87.87;98722.72;5074041;27;20413;-83
2021/06/30 22:06:09;;;;;;;0.10;0.10;;;;;;;17.30;88.21;98724.03;5084170;28;20938;-81
2021/06/30 22:09:01;;;;;;;0.10;0.10;;;;;;;17.36;88.10;98720.41;5081176;28;20375;-83
2021/06/30 22:11:49;;;;;;;0.10;0.10;;;;;;;17.37;87.98;98719.38;5126244;27;20396;-80
2021/06/30 22:14:40;;;;;;;0.10;0.10;;;;;;;17.34;87.90;98725.28;5123254;27;20355;-80
2021/06/30 22:17:28;;;;;;;0.10;0.10;;;;;;;17.43;87.57;98721.22;5159712;27;20954;-84
2021/06/30 22:20:21;;;;;;;0.10;0.10;;;;;;;17.39;87.60;98716.41;5142860;27;20402;-83
2021/06/30 22:23:14;;;;;;;0.10;0.10;;;;;;;17.51;87.30;98718.22;5096321;27;20422;-83
2021/06/30 22:26:05;;;;;;;0.10;0.10;;;;;;;17.51;87.11;98715.47;5116724;27;20390;-82
2021/06/30 22:28:47;;;;;;;0.10;0.10;;;;;;;17.41;87.36;98711.56;5101731;27;20422;-82
2021/06/30 22:31:33;;;;;;;0.10;0.10;;;;;;;17.56;87.31;98715.69;5087288;27;20549;-80
2021/06/30 22:34:14;;;;;;;0.10;0.10;;;;;;;17.60;87.48;98716.09;5085451;28;20434;-83
2021/06/30 22:37:02;;;;;;;0.20;0.20;;;;;;;17.72;87.68;98710.75;5122547;27;20402;-81
2021/06/30 22:39:59;;;;;;;0.10;0.10;;;;;;;17.79;87.38;98703.38;5085223;28;20415;-81
2021/06/30 22:42:43;;;;;;;0.10;0.10;;;;;;;17.82;87.08;98700.19;5063106;28;20401;-83
2021/06/30 22:45:26;;;;;;;0.10;0.10;;;;;;;17.90;87.03;98713.59;5192372;27;20797;-82
2021/06/30 22:48:17;;;;;;;0.20;0.20;;;;;;;17.93;86.62;98707.69;5074010;27;20432;-84
2021/06/30 22:51:07;;;;;;;0.10;0.10;;;;;;;17.89;86.40;98711.94;5101304;27;20700;-81
2021/06/30 22:53:54;;;;;;;0.15;0.15;;;;;;;17.90;86.45;98719.06;5074274;28;20402;-82
2021/06/30 22:56:49;;;;;;;0.10;0.10;;;;;;;17.93;86.72;98713.16;5091314;27;20431;-82
2021/06/30 22:59:36;;;;;;;0.10;0.10;;;;;;;17.98;86.55;98721.50;5144652;27;20403;-81
2021/06/30 23:02:19;;;;;;;0.10;0.10;;;;;;;17.92;86.02;98716.97;5090413;28;20431;-83
2021/06/30 23:05:10;;;;;;;0.15;0.10;;;;;;;17.92;86.88;98722.44;5092337;27;20360;-80
2021/06/30 23:08:48;;;;;;;0.10;0.10;;;;;;;17.87;86.79;98718.66;5067130;27;20389;-83
2021/06/30 23:11:37;;;;;;;0.10;0.10;;;;;;;17.81;87.09;98709.47;5097825;28;20511;-80
2021/06/30 23:14:23;;;;;;;0.10;0.10;;;;;;;17.72;87.06;98716.22;5076367;28;20442;-81
2021/06/30 23:17:02;;;;;;;0.10;0.10;;;;;;;17.73;87.23;98712.41;5121834;27;20389;-81
2021/06/30 23:19:54;;;;;;;0.10;0.10;;;;;;;17.69;87.01;98705.72;5120727;27;20721;-81
2021/06/30 23:22:41;;;;;;;0.10;0.10;;;;;;;17.56;87.59;98715.69;5081952;27;20379;-84
2021/06/30 23:25:31;;;;;;;0.10;0.10;;;;;;;17.65;88.11;98720.88;5113316;27;20405;-81
2021/06/30 23:28:12;;;;;;;0.10;0.10;;;;;;;17.73;87.61;98726.06;5079550;28;20401;-82
2021/06/30 23:30:58;;;;;;;0.10;0.10;;;;;;;17.72;87.61;98727.16;5111237;27;20514;-82
2021/06/30 23:33:41;;;;;;;0.10;0.10;;;;;;;17.78;87.62;98723.56;5065655;28;20402;-80
2021/06/30 23:36:23;;;;;;;0.10;0.10;;;;;;;17.84;87.36;98722.66;5155820;27;20389;-81
2021/06/30 23:39:04;;;;;;;0.10;0.10;;;;;;;17.77;87.11;98719.13;5122250;27;20407;-81
2021/06/30 23:41:43;;;;;;;0.10;0.10;;;;;;;17.63;87.84;98712.91;5071145;28;20403;-83
2021/06/30 23:44:23;;;;;;;0.10;0.10;;;;;;;17.77;87.96;98719.13;5090972;27;20409;-81
2021/06/30 23:47:03;;;;;;;0.10;0.10;;;;;;;17.68;87.91;98709.50;5084863;28;21067;-82
2021/06/30 23:49:46;;;;;;;0.10;0.10;;;;;;;17.58;88.80;98716.28;5090464;28;20912;-81
2021/06/30 23:52:27;;;;;;;0.10;0.10;;;;;;;17.54;89.09;98715.03;5042729;28;20955;-80
2021/06/30 23:55:15;;;;;;;0.10;0.10;;;;;;;17.46;89.15;98712.59;5112029;27;20421;-80
2021/06/30 23:57:55;;;;;;;0.10;0.10;;;;;;;17.52;89.66;98717.19;5171405;27;20118;-80
